ADDS TAF Board (Experimental) INFO Settings
IDs: Format: Expanded Condensed

KTPA - Tampa Intl Arpt, FL, US

Issued at 0256 UTC 31 Aug 2016
Updated at 0419 UTC 31 Aug 2016
Time0353Z 31/05Z 31/06Z 31/07Z 31/08Z 31/09Z 31/10Z 31/11Z 31/12Z 31/13Z 31/14Z 31/15Z 31/16Z 31/17Z
Type OBS PRVL PRVL PRVL PRVL PRVL PRVL PRVL PRVL PRVL PRVL PRVL PRVL PRVL
VIS 10 >6 >6 >6 >6 >6 >6 >6 >6 >6 >6 >6 >6 >6
CIG 50 80 80 80 100 100 100 100 100 100 50 50 50 50
Cover OVC OVC OVC OVC OVC OVC OVC OVC OVC OVC BKN BKN BKN BKN
FltCat VFR VFR VFR VFR VFR VFR VFR VFR VFR VFR VFR VFR VFR VFR
WX -- -- -- -- VCSH VCSH VCSH VCSH VCSH VCSH VCSH VCSH VCSH VCSH
WDir 110 160 160 160 180 180 180 180 180 180 190 190 190 190
WSpd 6 5 5 5 10 10 10 10 10 10 12 12 12 12
WGst -- -- -- -- -- -- -- -- -- -- 20 20 20 20
R01/19
XWnd -6 -2 -2 -2 -0 -0 -0 -0 -0 -0 2 2 2 2
XGst -- -- -- -- -- -- -- -- -- -- 3 3 3 3
HWnd -2 -5 -5 -5 -10 -10 -10 -10 -10 -10 -12 -12 -12 -12
HGst -- -- -- -- -- -- -- -- -- -- -20 -20 -20 -20
R10/28
XWnd -2 -5 -5 -5 -10 -10 -10 -10 -10 -10 -12 -12 -12 -12
XGst -- -- -- -- -- -- -- -- -- -- -20 -20 -20 -20
HWnd 6 2 2 2 0 0 0 0 0 0 -2 -2 -2 -2
HGst -- -- -- -- -- -- -- -- -- -- -3 -3 -3 -3

Raw TAF
KTPA 310256Z 3103/3124 16005KT P6SM SCT020 OVC080
  FM310800 18010KT P6SM VCSH SCT015 OVC100
  FM311400 19012G20KT P6SM VCSH SCT025 BKN050
  FM311800 19014G21KT 6SM -RA VCTS SCT025CB OVC050


Raw METAR
KTPA 310353Z 11006KT 10SM SCT011 OVC050 26/24 A2993 RMK AO2 SLP134 SCT V BKN T02560239
KTPA 310253Z 14007KT 10SM SCT027 BKN043 BKN090 26/24 A2991 RMK AO2 SLP129 T02610239 53012
KTPA 310244Z 15005KT 10SM SCT027 BKN043 BKN090 26/24 A2991 RMK AO2 T02610239
KTPA 310215Z 15005KT 10SM BKN018 BKN060 26/24 A2991 RMK AO2 CIG 014V022 T02610239
KTPA 310153Z 14004KT 10SM BKN011 BKN031 26/24 A2990 RMK AO2 SLP125 CIG 010V014 T02610239
KTPA 310146Z 15004KT 10SM BKN012 BKN031 26/24 A2990 RMK AO2 CIG 010V014 T02610239

METAR Board
Radar Display
Forecast Discussion

TAF Board Legend

Potential Impact
Threat None Slight Moderate High
Visibility (sm) ≥5.1 5.1>X≥3 3>X≥1 <1
Ceiling (100 ft) ≥30.1 30.1>X≥10 10>X≥5 <5
Wind Speed (kt) <10 10≤X<20 20≤X<30 ≥30
Wind Gust (kt) <15 15≤X<25 25≤X<35 ≥35
Weather No Wx Reported VCTS,-TS,-FZRA,SN TS,FZRA +TS,+FZRA,+SN